sensor_id;sensor_type;location;lat;lon;timestamp;P1;durP1;ratioP1;P2;durP2;ratioP2
65375;SDS011;51976;47.332;9.404;2022-12-18T00:00:58;3.55;;;1.63;;
65375;SDS011;51976;47.332;9.404;2022-12-18T00:03:24;2.10;;;1.75;;
65375;SDS011;51976;47.332;9.404;2022-12-18T00:05:50;2.83;;;1.92;;
65375;SDS011;51976;47.332;9.404;2022-12-18T00:08:17;2.13;;;1.75;;
65375;SDS011;51976;47.332;9.404;2022-12-18T00:10:43;2.53;;;1.70;;
65375;SDS011;51976;47.332;9.404;2022-12-18T00:13:09;2.70;;;2.08;;
65375;SDS011;51976;47.332;9.404;2022-12-18T00:15:35;1.83;;;1.63;;
65375;SDS011;51976;47.332;9.404;2022-12-18T00:18:01;3.17;;;2.08;;
65375;SDS011;51976;47.332;9.404;2022-12-18T00:20:27;2.55;;;1.90;;
65375;SDS011;51976;47.332;9.404;2022-12-18T00:22:53;3.63;;;2.13;;
65375;SDS011;51976;47.332;9.404;2022-12-18T00:25:18;2.75;;;1.90;;
65375;SDS011;51976;47.332;9.404;2022-12-18T00:27:44;2.92;;;1.95;;
65375;SDS011;51976;47.332;9.404;2022-12-18T00:30:09;2.88;;;2.00;;
65375;SDS011;51976;47.332;9.404;2022-12-18T00:32:35;2.70;;;2.13;;
65375;SDS011;51976;47.332;9.404;2022-12-18T00:35:01;2.35;;;1.65;;
65375;SDS011;51976;47.332;9.404;2022-12-18T00:37:26;2.63;;;2.00;;
65375;SDS011;51976;47.332;9.404;2022-12-18T00:39:52;1.92;;;1.70;;
65375;SDS011;51976;47.332;9.404;2022-12-18T00:42:17;3.50;;;2.05;;
65375;SDS011;51976;47.332;9.404;2022-12-18T00:45:02;3.00;;;1.88;;
65375;SDS011;51976;47.332;9.404;2022-12-18T00:47:28;2.17;;;1.90;;
65375;SDS011;51976;47.332;9.404;2022-12-18T00:49:53;2.45;;;2.05;;
65375;SDS011;51976;47.332;9.404;2022-12-18T00:52:19;2.33;;;1.83;;
65375;SDS011;51976;47.332;9.404;2022-12-18T00:54:44;2.35;;;1.80;;
65375;SDS011;51976;47.332;9.404;2022-12-18T00:57:09;1.92;;;1.60;;
65375;SDS011;51976;47.332;9.404;2022-12-18T00:59:35;2.55;;;2.08;;
65375;SDS011;51976;47.332;9.404;2022-12-18T01:02:00;2.75;;;1.98;;
65375;SDS011;51976;47.332;9.404;2022-12-18T01:04:26;2.25;;;1.80;;
65375;SDS011;51976;47.332;9.404;2022-12-18T01:06:51;3.55;;;1.80;;
65375;SDS011;51976;47.332;9.404;2022-12-18T01:09:16;2.50;;;2.00;;
65375;SDS011;51976;47.332;9.404;2022-12-18T01:11:42;2.47;;;1.70;;
65375;SDS011;51976;47.332;9.404;2022-12-18T01:14:07;2.78;;;1.90;;
65375;SDS011;51976;47.332;9.404;2022-12-18T01:16:33;2.70;;;1.80;;
65375;SDS011;51976;47.332;9.404;2022-12-18T01:18:58;2.67;;;2.10;;
65375;SDS011;51976;47.332;9.404;2022-12-18T01:21:23;2.50;;;1.70;;
65375;SDS011;51976;47.332;9.404;2022-12-18T01:23:52;2.35;;;1.63;;
65375;SDS011;51976;47.332;9.404;2022-12-18T01:26:19;2.80;;;2.03;;
65375;SDS011;51976;47.332;9.404;2022-12-18T01:28:45;2.67;;;1.98;;
65375;SDS011;51976;47.332;9.404;2022-12-18T01:31:11;2.42;;;2.00;;
65375;SDS011;51976;47.332;9.404;2022-12-18T01:33:42;2.75;;;2.15;;
65375;SDS011;51976;47.332;9.404;2022-12-18T01:36:11;2.55;;;2.05;;
65375;SDS011;51976;47.332;9.404;2022-12-18T01:38:40;2.45;;;1.95;;
65375;SDS011;51976;47.332;9.404;2022-12-18T01:41:05;2.78;;;2.15;;
65375;SDS011;51976;47.332;9.404;2022-12-18T01:43:41;2.50;;;1.73;;
65375;SDS011;51976;47.332;9.404;2022-12-18T01:46:15;3.15;;;1.83;;
65375;SDS011;51976;47.332;9.404;2022-12-18T01:48:41;2.50;;;1.80;;
65375;SDS011;51976;47.332;9.404;2022-12-18T01:51:10;2.63;;;1.92;;
65375;SDS011;51976;47.332;9.404;2022-12-18T01:53:37;2.50;;;1.70;;
65375;SDS011;51976;47.332;9.404;2022-12-18T01:56:05;2.17;;;1.67;;
65375;SDS011;51976;47.332;9.404;2022-12-18T01:59:00;2.28;;;1.55;;
65375;SDS011;51976;47.332;9.404;2022-12-18T02:01:23;2.83;;;1.90;;
65375;SDS011;51976;47.332;9.404;2022-12-18T02:03:49;2.72;;;1.90;;
65375;SDS011;51976;47.332;9.404;2022-12-18T02:06:19;2.47;;;1.73;;
65375;SDS011;51976;47.332;9.404;2022-12-18T02:09:11;2.55;;;1.90;;
65375;SDS011;51976;47.332;9.404;2022-12-18T02:11:46;2.35;;;1.80;;
65375;SDS011;51976;47.332;9.404;2022-12-18T02:14:23;2.60;;;1.80;;
65375;SDS011;51976;47.332;9.404;2022-12-18T02:17:11;2.47;;;1.85;;
65375;SDS011;51976;47.332;9.404;2022-12-18T02:19:47;2.90;;;2.13;;
65375;SDS011;51976;47.332;9.404;2022-12-18T02:23:08;2.80;;;2.20;;
65375;SDS011;51976;47.332;9.404;2022-12-18T02:25:33;2.42;;;2.08;;
65375;SDS011;51976;47.332;9.404;2022-12-18T02:28:11;2.33;;;1.92;;
65375;SDS011;51976;47.332;9.404;2022-12-18T02:30:41;2.67;;;2.00;;
65375;SDS011;51976;47.332;9.404;2022-12-18T02:33:08;2.30;;;1.80;;
65375;SDS011;51976;47.332;9.404;2022-12-18T02:35:36;3.25;;;2.10;;
65375;SDS011;51976;47.332;9.404;2022-12-18T02:38:04;2.90;;;2.03;;
65375;SDS011;51976;47.332;9.404;2022-12-18T02:40:31;2.42;;;1.80;;
65375;SDS011;51976;47.332;9.404;2022-12-18T02:43:02;2.95;;;1.98;;
65375;SDS011;51976;47.332;9.404;2022-12-18T02:45:32;2.50;;;1.85;;
65375;SDS011;51976;47.332;9.404;2022-12-18T02:47:58;1.63;;;1.23;;
65375;SDS011;51976;47.332;9.404;2022-12-18T02:50:29;2.47;;;1.75;;
65375;SDS011;51976;47.332;9.404;2022-12-18T02:56:11;2.70;;;1.70;;
65375;SDS011;51976;47.332;9.404;2022-12-18T02:59:04;2.80;;;1.98;;
65375;SDS011;51976;47.332;9.404;2022-12-18T03:01:36;2.50;;;1.83;;
65375;SDS011;51976;47.332;9.404;2022-12-18T03:04:10;2.83;;;1.88;;
65375;SDS011;51976;47.332;9.404;2022-12-18T03:06:58;2.90;;;2.00;;
65375;SDS011;51976;47.332;9.404;2022-12-18T03:09:29;2.47;;;1.58;;
65375;SDS011;51976;47.332;9.404;2022-12-18T03:12:04;3.28;;;1.92;;
65375;SDS011;51976;47.332;9.404;2022-12-18T03:14:48;3.15;;;2.00;;
65375;SDS011;51976;47.332;9.404;2022-12-18T03:17:34;2.35;;;1.80;;
65375;SDS011;51976;47.332;9.404;2022-12-18T03:20:09;2.55;;;2.15;;
65375;SDS011;51976;47.332;9.404;2022-12-18T03:22:37;2.58;;;2.00;;
65375;SDS011;51976;47.332;9.404;2022-12-18T03:25:06;2.70;;;2.00;;
65375;SDS011;51976;47.332;9.404;2022-12-18T03:27:36;2.50;;;1.95;;
65375;SDS011;51976;47.332;9.404;2022-12-18T03:30:05;2.53;;;2.08;;
65375;SDS011;51976;47.332;9.404;2022-12-18T03:32:43;2.50;;;1.92;;
65375;SDS011;51976;47.332;9.404;2022-12-18T03:35:30;2.60;;;2.03;;
65375;SDS011;51976;47.332;9.404;2022-12-18T03:37:58;2.42;;;1.95;;
65375;SDS011;51976;47.332;9.404;2022-12-18T03:40:26;2.65;;;1.95;;
65375;SDS011;51976;47.332;9.404;2022-12-18T03:43:03;3.20;;;2.15;;
65375;SDS011;51976;47.332;9.404;2022-12-18T03:45:37;2.15;;;1.77;;
65375;SDS011;51976;47.332;9.404;2022-12-18T03:48:13;2.30;;;1.90;;
65375;SDS011;51976;47.332;9.404;2022-12-18T03:50:46;2.70;;;2.00;;
65375;SDS011;51976;47.332;9.404;2022-12-18T03:56:15;2.95;;;2.28;;
65375;SDS011;51976;47.332;9.404;2022-12-18T03:58:42;3.05;;;2.00;;
65375;SDS011;51976;47.332;9.404;2022-12-18T04:01:09;3.25;;;2.00;;
65375;SDS011;51976;47.332;9.404;2022-12-18T04:03:39;2.38;;;1.98;;
65375;SDS011;51976;47.332;9.404;2022-12-18T04:06:07;2.78;;;1.90;;
65375;SDS011;51976;47.332;9.404;2022-12-18T04:08:34;3.45;;;1.98;;
65375;SDS011;51976;47.332;9.404;2022-12-18T04:11:01;2.65;;;2.08;;
65375;SDS011;51976;47.332;9.404;2022-12-18T04:13:28;2.40;;;1.90;;
65375;SDS011;51976;47.332;9.404;2022-12-18T04:15:56;3.70;;;1.80;;
65375;SDS011;51976;47.332;9.404;2022-12-18T04:18:22;2.60;;;1.90;;
65375;SDS011;51976;47.332;9.404;2022-12-18T04:20:47;2.55;;;2.13;;
65375;SDS011;51976;47.332;9.404;2022-12-18T04:23:12;2.25;;;1.70;;
65375;SDS011;51976;47.332;9.404;2022-12-18T04:25:38;2.55;;;1.90;;
65375;SDS011;51976;47.332;9.404;2022-12-18T04:28:03;2.92;;;1.80;;
65375;SDS011;51976;47.332;9.404;2022-12-18T04:30:29;3.30;;;2.00;;
65375;SDS011;51976;47.332;9.404;2022-12-18T04:32:54;2.53;;;1.98;;
65375;SDS011;51976;47.332;9.404;2022-12-18T04:35:19;2.55;;;1.83;;
65375;SDS011;51976;47.332;9.404;2022-12-18T04:37:45;2.97;;;2.10;;
65375;SDS011;51976;47.332;9.404;2022-12-18T04:40:10;3.25;;;1.95;;
65375;SDS011;51976;47.332;9.404;2022-12-18T04:42:36;3.10;;;2.08;;
65375;SDS011;51976;47.332;9.404;2022-12-18T04:45:01;2.30;;;1.67;;
65375;SDS011;51976;47.332;9.404;2022-12-18T04:47:27;3.28;;;2.00;;
65375;SDS011;51976;47.332;9.404;2022-12-18T04:49:52;3.20;;;2.30;;
65375;SDS011;51976;47.332;9.404;2022-12-18T04:52:18;2.30;;;1.70;;
65375;SDS011;51976;47.332;9.404;2022-12-18T04:54:43;2.85;;;2.05;;
65375;SDS011;51976;47.332;9.404;2022-12-18T04:57:08;2.65;;;1.70;;
65375;SDS011;51976;47.332;9.404;2022-12-18T04:59:34;2.92;;;2.00;;
65375;SDS011;51976;47.332;9.404;2022-12-18T05:01:59;2.80;;;1.80;;
65375;SDS011;51976;47.332;9.404;2022-12-18T05:04:25;2.03;;;1.65;;
65375;SDS011;51976;47.332;9.404;2022-12-18T05:06:50;3.13;;;1.92;;
65375;SDS011;51976;47.332;9.404;2022-12-18T05:09:15;2.80;;;2.25;;
65375;SDS011;51976;47.332;9.404;2022-12-18T05:11:41;3.08;;;2.03;;
65375;SDS011;51976;47.332;9.404;2022-12-18T05:14:06;2.20;;;1.80;;
65375;SDS011;51976;47.332;9.404;2022-12-18T05:16:32;3.05;;;2.13;;
65375;SDS011;51976;47.332;9.404;2022-12-18T05:18:57;3.15;;;2.10;;
65375;SDS011;51976;47.332;9.404;2022-12-18T05:21:22;2.50;;;2.00;;
65375;SDS011;51976;47.332;9.404;2022-12-18T05:23:48;2.92;;;1.92;;
65375;SDS011;51976;47.332;9.404;2022-12-18T05:26:14;2.60;;;2.13;;
65375;SDS011;51976;47.332;9.404;2022-12-18T05:28:44;3.50;;;2.22;;
65375;SDS011;51976;47.332;9.404;2022-12-18T05:31:11;2.45;;;1.80;;
65375;SDS011;51976;47.332;9.404;2022-12-18T05:33:36;2.75;;;1.70;;
65375;SDS011;51976;47.332;9.404;2022-12-18T05:36:03;3.13;;;2.08;;
65375;SDS011;51976;47.332;9.404;2022-12-18T05:38:31;2.80;;;1.85;;
65375;SDS011;51976;47.332;9.404;2022-12-18T05:40:57;3.13;;;2.03;;
65375;SDS011;51976;47.332;9.404;2022-12-18T05:43:23;2.35;;;2.15;;
65375;SDS011;51976;47.332;9.404;2022-12-18T05:45:50;2.92;;;2.08;;
65375;SDS011;51976;47.332;9.404;2022-12-18T05:48:17;2.83;;;1.88;;
65375;SDS011;51976;47.332;9.404;2022-12-18T05:50:43;2.38;;;1.80;;
65375;SDS011;51976;47.332;9.404;2022-12-18T05:53:12;2.22;;;1.83;;
65375;SDS011;51976;47.332;9.404;2022-12-18T05:55:39;3.17;;;2.03;;
65375;SDS011;51976;47.332;9.404;2022-12-18T05:58:06;2.60;;;1.83;;
65375;SDS011;51976;47.332;9.404;2022-12-18T06:00:34;3.40;;;2.08;;
65375;SDS011;51976;47.332;9.404;2022-12-18T06:03:01;2.22;;;1.90;;
65375;SDS011;51976;47.332;9.404;2022-12-18T06:05:27;3.15;;;2.00;;
65375;SDS011;51976;47.332;9.404;2022-12-18T06:07:53;3.13;;;2.35;;
65375;SDS011;51976;47.332;9.404;2022-12-18T06:10:18;2.92;;;2.15;;
65375;SDS011;51976;47.332;9.404;2022-12-18T06:12:44;2.53;;;2.08;;
65375;SDS011;51976;47.332;9.404;2022-12-18T06:15:09;2.65;;;2.00;;
65375;SDS011;51976;47.332;9.404;2022-12-18T06:17:35;3.65;;;2.13;;
65375;SDS011;51976;47.332;9.404;2022-12-18T06:20:00;2.97;;;2.13;;
65375;SDS011;51976;47.332;9.404;2022-12-18T06:22:26;3.40;;;2.15;;
65375;SDS011;51976;47.332;9.404;2022-12-18T06:24:51;2.63;;;1.85;;
65375;SDS011;51976;47.332;9.404;2022-12-18T06:27:17;2.92;;;2.10;;
65375;SDS011;51976;47.332;9.404;2022-12-18T06:29:42;2.95;;;2.10;;
65375;SDS011;51976;47.332;9.404;2022-12-18T06:32:08;3.00;;;2.08;;
65375;SDS011;51976;47.332;9.404;2022-12-18T06:34:33;2.63;;;2.10;;
65375;SDS011;51976;47.332;9.404;2022-12-18T06:36:59;2.58;;;1.92;;
65375;SDS011;51976;47.332;9.404;2022-12-18T06:39:27;2.63;;;2.05;;
65375;SDS011;51976;47.332;9.404;2022-12-18T06:41:52;2.55;;;2.00;;
65375;SDS011;51976;47.332;9.404;2022-12-18T06:44:18;2.92;;;2.05;;
65375;SDS011;51976;47.332;9.404;2022-12-18T06:46:43;3.40;;;2.50;;
65375;SDS011;51976;47.332;9.404;2022-12-18T06:49:09;2.92;;;2.03;;
65375;SDS011;51976;47.332;9.404;2022-12-18T06:51:34;3.63;;;2.30;;
65375;SDS011;51976;47.332;9.404;2022-12-18T06:54:00;2.97;;;2.28;;
65375;SDS011;51976;47.332;9.404;2022-12-18T06:56:25;2.63;;;2.17;;
65375;SDS011;51976;47.332;9.404;2022-12-18T06:58:51;3.08;;;2.28;;
65375;SDS011;51976;47.332;9.404;2022-12-18T07:01:16;3.15;;;2.60;;
65375;SDS011;51976;47.332;9.404;2022-12-18T07:03:41;3.33;;;2.53;;
65375;SDS011;51976;47.332;9.404;2022-12-18T07:06:13;3.38;;;2.60;;
65375;SDS011;51976;47.332;9.404;2022-12-18T07:08:40;3.58;;;2.42;;
65375;SDS011;51976;47.332;9.404;2022-12-18T07:11:05;3.00;;;2.20;;
65375;SDS011;51976;47.332;9.404;2022-12-18T07:13:31;3.30;;;2.47;;
65375;SDS011;51976;47.332;9.404;2022-12-18T07:16:02;3.10;;;2.22;;
65375;SDS011;51976;47.332;9.404;2022-12-18T07:18:29;3.28;;;2.40;;
65375;SDS011;51976;47.332;9.404;2022-12-18T07:20:54;3.00;;;2.30;;
65375;SDS011;51976;47.332;9.404;2022-12-18T07:23:38;3.33;;;2.50;;
65375;SDS011;51976;47.332;9.404;2022-12-18T07:26:04;3.80;;;2.67;;
65375;SDS011;51976;47.332;9.404;2022-12-18T07:28:32;3.90;;;2.50;;
65375;SDS011;51976;47.332;9.404;2022-12-18T07:30:58;3.50;;;2.45;;
65375;SDS011;51976;47.332;9.404;2022-12-18T07:33:28;4.07;;;2.60;;
65375;SDS011;51976;47.332;9.404;2022-12-18T07:35:53;3.28;;;2.47;;
65375;SDS011;51976;47.332;9.404;2022-12-18T07:38:18;4.32;;;2.75;;
65375;SDS011;51976;47.332;9.404;2022-12-18T07:40:44;2.30;;;1.90;;
65375;SDS011;51976;47.332;9.404;2022-12-18T07:43:09;3.42;;;2.60;;
65375;SDS011;51976;47.332;9.404;2022-12-18T07:45:34;3.42;;;2.70;;
65375;SDS011;51976;47.332;9.404;2022-12-18T07:48:00;3.40;;;2.30;;
65375;SDS011;51976;47.332;9.404;2022-12-18T07:50:25;3.67;;;2.33;;
65375;SDS011;51976;47.332;9.404;2022-12-18T07:52:50;3.70;;;2.75;;
65375;SDS011;51976;47.332;9.404;2022-12-18T07:55:16;4.00;;;2.85;;
65375;SDS011;51976;47.332;9.404;2022-12-18T07:57:41;3.75;;;2.67;;
65375;SDS011;51976;47.332;9.404;2022-12-18T08:00:07;3.85;;;2.60;;
65375;SDS011;51976;47.332;9.404;2022-12-18T08:02:33;4.18;;;2.40;;
65375;SDS011;51976;47.332;9.404;2022-12-18T08:04:58;3.50;;;2.78;;
65375;SDS011;51976;47.332;9.404;2022-12-18T08:07:24;4.10;;;2.95;;
65375;SDS011;51976;47.332;9.404;2022-12-18T08:09:49;4.18;;;2.88;;
65375;SDS011;51976;47.332;9.404;2022-12-18T08:12:14;4.50;;;2.92;;
65375;SDS011;51976;47.332;9.404;2022-12-18T08:14:40;3.70;;;2.80;;
65375;SDS011;51976;47.332;9.404;2022-12-18T08:17:05;4.45;;;3.05;;
65375;SDS011;51976;47.332;9.404;2022-12-18T08:19:30;4.53;;;2.97;;
65375;SDS011;51976;47.332;9.404;2022-12-18T08:21:56;4.03;;;3.00;;
65375;SDS011;51976;47.332;9.404;2022-12-18T08:24:21;4.25;;;3.15;;
65375;SDS011;51976;47.332;9.404;2022-12-18T08:26:47;3.75;;;2.97;;
65375;SDS011;51976;47.332;9.404;2022-12-18T08:29:12;4.32;;;2.80;;
65375;SDS011;51976;47.332;9.404;2022-12-18T08:31:38;3.95;;;3.00;;
65375;SDS011;51976;47.332;9.404;2022-12-18T08:34:03;5.22;;;3.47;;
65375;SDS011;51976;47.332;9.404;2022-12-18T08:36:28;4.18;;;2.90;;
65375;SDS011;51976;47.332;9.404;2022-12-18T08:38:54;3.85;;;2.72;;
65375;SDS011;51976;47.332;9.404;2022-12-18T08:41:20;4.00;;;2.78;;
65375;SDS011;51976;47.332;9.404;2022-12-18T08:43:46;3.35;;;2.88;;
65375;SDS011;51976;47.332;9.404;2022-12-18T08:46:35;4.72;;;2.88;;
65375;SDS011;51976;47.332;9.404;2022-12-18T08:49:02;3.90;;;3.13;;
65375;SDS011;51976;47.332;9.404;2022-12-18T08:51:29;3.72;;;2.67;;
65375;SDS011;51976;47.332;9.404;2022-12-18T08:53:54;4.88;;;3.22;;
65375;SDS011;51976;47.332;9.404;2022-12-18T08:56:19;5.47;;;3.20;;
65375;SDS011;51976;47.332;9.404;2022-12-18T08:58:45;4.63;;;3.60;;
65375;SDS011;51976;47.332;9.404;2022-12-18T09:01:11;3.92;;;2.90;;
65375;SDS011;51976;47.332;9.404;2022-12-18T09:03:37;4.47;;;3.50;;
65375;SDS011;51976;47.332;9.404;2022-12-18T09:06:03;4.28;;;3.50;;
65375;SDS011;51976;47.332;9.404;2022-12-18T09:08:30;4.70;;;3.42;;
65375;SDS011;51976;47.332;9.404;2022-12-18T09:10:55;5.25;;;3.70;;
65375;SDS011;51976;47.332;9.404;2022-12-18T09:13:21;5.38;;;3.60;;
65375;SDS011;51976;47.332;9.404;2022-12-18T09:15:48;5.07;;;3.20;;
65375;SDS011;51976;47.332;9.404;2022-12-18T09:18:16;3.67;;;2.83;;
65375;SDS011;51976;47.332;9.404;2022-12-18T09:20:42;4.32;;;3.65;;
65375;SDS011;51976;47.332;9.404;2022-12-18T09:23:08;4.75;;;3.42;;
65375;SDS011;51976;47.332;9.404;2022-12-18T09:25:34;4.22;;;3.30;;
65375;SDS011;51976;47.332;9.404;2022-12-18T09:28:01;3.75;;;3.25;;
65375;SDS011;51976;47.332;9.404;2022-12-18T09:30:28;4.05;;;3.15;;
65375;SDS011;51976;47.332;9.404;2022-12-18T09:32:54;4.32;;;3.30;;
65375;SDS011;51976;47.332;9.404;2022-12-18T09:35:19;4.63;;;3.28;;
65375;SDS011;51976;47.332;9.404;2022-12-18T09:37:44;4.25;;;3.38;;
65375;SDS011;51976;47.332;9.404;2022-12-18T09:40:13;4.97;;;3.30;;
65375;SDS011;51976;47.332;9.404;2022-12-18T09:42:41;4.55;;;3.65;;
65375;SDS011;51976;47.332;9.404;2022-12-18T09:45:12;5.53;;;3.60;;
65375;SDS011;51976;47.332;9.404;2022-12-18T09:47:40;4.35;;;3.25;;
65375;SDS011;51976;47.332;9.404;2022-12-18T09:50:37;4.32;;;3.45;;
65375;SDS011;51976;47.332;9.404;2022-12-18T09:53:00;4.63;;;3.42;;
65375;SDS011;51976;47.332;9.404;2022-12-18T09:55:33;4.93;;;3.75;;
65375;SDS011;51976;47.332;9.404;2022-12-18T09:58:06;5.40;;;3.63;;
65375;SDS011;51976;47.332;9.404;2022-12-18T10:00:43;4.57;;;3.25;;
65375;SDS011;51976;47.332;9.404;2022-12-18T10:03:09;4.22;;;3.58;;
65375;SDS011;51976;47.332;9.404;2022-12-18T10:05:39;4.18;;;3.50;;
65375;SDS011;51976;47.332;9.404;2022-12-18T10:08:19;5.82;;;3.97;;
65375;SDS011;51976;47.332;9.404;2022-12-18T10:10:56;5.18;;;3.65;;
65375;SDS011;51976;47.332;9.404;2022-12-18T10:13:31;3.90;;;3.20;;
65375;SDS011;51976;47.332;9.404;2022-12-18T10:16:12;4.35;;;3.17;;
65375;SDS011;51976;47.332;9.404;2022-12-18T10:21:45;4.85;;;3.50;;
65375;SDS011;51976;47.332;9.404;2022-12-18T10:24:32;4.70;;;3.30;;
65375;SDS011;51976;47.332;9.404;2022-12-18T10:27:12;5.00;;;3.58;;
65375;SDS011;51976;47.332;9.404;2022-12-18T10:29:42;3.92;;;3.28;;
65375;SDS011;51976;47.332;9.404;2022-12-18T10:32:13;5.47;;;4.15;;
65375;SDS011;51976;47.332;9.404;2022-12-18T10:34:44;4.75;;;3.60;;
65375;SDS011;51976;47.332;9.404;2022-12-18T10:37:13;4.80;;;3.83;;
65375;SDS011;51976;47.332;9.404;2022-12-18T10:39:45;4.50;;;3.30;;
65375;SDS011;51976;47.332;9.404;2022-12-18T10:42:18;4.35;;;3.35;;
65375;SDS011;51976;47.332;9.404;2022-12-18T10:44:44;4.68;;;3.50;;
65375;SDS011;51976;47.332;9.404;2022-12-18T10:47:12;4.50;;;3.63;;
65375;SDS011;51976;47.332;9.404;2022-12-18T10:49:47;4.63;;;3.38;;
65375;SDS011;51976;47.332;9.404;2022-12-18T10:52:15;4.60;;;3.55;;
65375;SDS011;51976;47.332;9.404;2022-12-18T10:54:50;4.55;;;3.90;;
65375;SDS011;51976;47.332;9.404;2022-12-18T10:57:33;6.05;;;4.15;;
65375;SDS011;51976;47.332;9.404;2022-12-18T11:00:31;4.60;;;3.53;;
65375;SDS011;51976;47.332;9.404;2022-12-18T11:02:52;5.05;;;3.40;;
65375;SDS011;51976;47.332;9.404;2022-12-18T11:05:28;5.38;;;3.85;;
65375;SDS011;51976;47.332;9.404;2022-12-18T11:07:56;5.20;;;3.60;;
65375;SDS011;51976;47.332;9.404;2022-12-18T11:10:26;5.78;;;3.45;;
65375;SDS011;51976;47.332;9.404;2022-12-18T11:12:55;4.85;;;3.75;;
65375;SDS011;51976;47.332;9.404;2022-12-18T11:15:33;4.18;;;3.78;;
65375;SDS011;51976;47.332;9.404;2022-12-18T11:17:59;4.28;;;3.60;;
65375;SDS011;51976;47.332;9.404;2022-12-18T11:20:29;4.55;;;3.50;;
65375;SDS011;51976;47.332;9.404;2022-12-18T11:23:05;5.47;;;3.00;;
65375;SDS011;51976;47.332;9.404;2022-12-18T11:25:37;5.20;;;3.72;;
65375;SDS011;51976;47.332;9.404;2022-12-18T11:28:06;4.82;;;3.42;;
65375;SDS011;51976;47.332;9.404;2022-12-18T11:31:26;5.03;;;3.80;;
65375;SDS011;51976;47.332;9.404;2022-12-18T11:34:13;4.82;;;3.80;;
65375;SDS011;51976;47.332;9.404;2022-12-18T11:36:52;4.30;;;3.47;;
65375;SDS011;51976;47.332;9.404;2022-12-18T11:39:20;4.88;;;3.95;;
65375;SDS011;51976;47.332;9.404;2022-12-18T11:42:01;4.82;;;3.78;;
65375;SDS011;51976;47.332;9.404;2022-12-18T11:44:52;4.32;;;3.67;;
65375;SDS011;51976;47.332;9.404;2022-12-18T11:47:37;5.25;;;3.75;;
65375;SDS011;51976;47.332;9.404;2022-12-18T11:50:14;4.78;;;3.10;;
65375;SDS011;51976;47.332;9.404;2022-12-18T11:52:43;4.75;;;3.72;;
65375;SDS011;51976;47.332;9.404;2022-12-18T11:55:15;5.10;;;3.80;;
65375;SDS011;51976;47.332;9.404;2022-12-18T11:58:02;3.78;;;3.38;;
65375;SDS011;51976;47.332;9.404;2022-12-18T12:00:48;4.63;;;3.33;;
65375;SDS011;51976;47.332;9.404;2022-12-18T12:06:27;4.43;;;3.20;;
65375;SDS011;51976;47.332;9.404;2022-12-18T12:09:14;4.07;;;3.40;;
65375;SDS011;51976;47.332;9.404;2022-12-18T12:12:01;5.50;;;3.45;;
65375;SDS011;51976;47.332;9.404;2022-12-18T12:14:55;3.75;;;3.30;;
65375;SDS011;51976;47.332;9.404;2022-12-18T12:17:45;4.95;;;3.67;;
65375;SDS011;51976;47.332;9.404;2022-12-18T12:20:21;4.45;;;3.75;;
65375;SDS011;51976;47.332;9.404;2022-12-18T12:23:14;4.47;;;3.60;;
65375;SDS011;51976;47.332;9.404;2022-12-18T12:26:06;4.85;;;3.38;;
65375;SDS011;51976;47.332;9.404;2022-12-18T12:28:48;4.75;;;3.53;;
65375;SDS011;51976;47.332;9.404;2022-12-18T12:31:47;5.05;;;3.70;;
65375;SDS011;51976;47.332;9.404;2022-12-18T12:34:48;4.80;;;3.80;;
65375;SDS011;51976;47.332;9.404;2022-12-18T12:37:45;4.88;;;3.90;;
65375;SDS011;51976;47.332;9.404;2022-12-18T12:40:35;4.80;;;3.72;;
65375;SDS011;51976;47.332;9.404;2022-12-18T12:43:19;4.47;;;3.35;;
65375;SDS011;51976;47.332;9.404;2022-12-18T12:45:55;4.50;;;3.38;;
65375;SDS011;51976;47.332;9.404;2022-12-18T12:48:46;5.20;;;3.95;;
65375;SDS011;51976;47.332;9.404;2022-12-18T12:51:19;4.85;;;4.00;;
65375;SDS011;51976;47.332;9.404;2022-12-18T12:53:54;4.10;;;3.30;;
65375;SDS011;51976;47.332;9.404;2022-12-18T12:56:21;5.20;;;3.90;;
65375;SDS011;51976;47.332;9.404;2022-12-18T12:58:58;4.32;;;3.45;;
65375;SDS011;51976;47.332;9.404;2022-12-18T13:01:52;4.63;;;3.78;;
65375;SDS011;51976;47.332;9.404;2022-12-18T13:04:35;4.40;;;3.50;;
65375;SDS011;51976;47.332;9.404;2022-12-18T13:07:16;4.93;;;3.88;;
65375;SDS011;51976;47.332;9.404;2022-12-18T13:12:55;6.28;;;4.30;;
65375;SDS011;51976;47.332;9.404;2022-12-18T13:15:49;6.22;;;4.40;;
65375;SDS011;51976;47.332;9.404;2022-12-18T13:18:19;7.72;;;4.97;;
65375;SDS011;51976;47.332;9.404;2022-12-18T13:20:47;6.20;;;4.75;;
65375;SDS011;51976;47.332;9.404;2022-12-18T13:23:28;6.80;;;5.50;;
65375;SDS011;51976;47.332;9.404;2022-12-18T13:28:59;5.97;;;5.18;;
65375;SDS011;51976;47.332;9.404;2022-12-18T13:34:24;7.40;;;5.30;;
65375;SDS011;51976;47.332;9.404;2022-12-18T13:36:52;6.53;;;5.40;;
65375;SDS011;51976;47.332;9.404;2022-12-18T13:39:21;6.55;;;4.90;;
65375;SDS011;51976;47.332;9.404;2022-12-18T13:41:50;6.38;;;5.05;;
65375;SDS011;51976;47.332;9.404;2022-12-18T13:44:31;6.38;;;4.60;;
65375;SDS011;51976;47.332;9.404;2022-12-18T13:46:59;6.28;;;4.53;;
65375;SDS011;51976;47.332;9.404;2022-12-18T13:49:40;6.80;;;5.03;;
65375;SDS011;51976;47.332;9.404;2022-12-18T13:52:16;6.63;;;5.07;;
65375;SDS011;51976;47.332;9.404;2022-12-18T13:54:59;6.50;;;5.20;;
65375;SDS011;51976;47.332;9.404;2022-12-18T13:57:28;6.30;;;4.72;;
65375;SDS011;51976;47.332;9.404;2022-12-18T13:59:55;6.20;;;5.15;;
65375;SDS011;51976;47.332;9.404;2022-12-18T14:05:20;5.47;;;4.43;;
65375;SDS011;51976;47.332;9.404;2022-12-18T14:07:50;5.40;;;4.25;;
65375;SDS011;51976;47.332;9.404;2022-12-18T14:10:17;6.18;;;4.30;;
65375;SDS011;51976;47.332;9.404;2022-12-18T14:12:49;5.80;;;4.57;;
65375;SDS011;51976;47.332;9.404;2022-12-18T14:15:31;5.45;;;4.47;;
65375;SDS011;51976;47.332;9.404;2022-12-18T14:18:02;6.65;;;4.95;;
65375;SDS011;51976;47.332;9.404;2022-12-18T14:20:49;5.57;;;4.70;;
65375;SDS011;51976;47.332;9.404;2022-12-18T14:23:34;6.07;;;4.78;;
65375;SDS011;51976;47.332;9.404;2022-12-18T14:28:43;5.40;;;4.35;;
65375;SDS011;51976;47.332;9.404;2022-12-18T14:31:16;6.40;;;4.30;;
65375;SDS011;51976;47.332;9.404;2022-12-18T14:33:43;5.45;;;4.20;;
65375;SDS011;51976;47.332;9.404;2022-12-18T14:36:13;5.43;;;4.13;;
65375;SDS011;51976;47.332;9.404;2022-12-18T14:38:42;5.47;;;4.45;;
65375;SDS011;51976;47.332;9.404;2022-12-18T14:41:11;5.38;;;4.25;;
65375;SDS011;51976;47.332;9.404;2022-12-18T14:43:39;5.60;;;4.50;;
65375;SDS011;51976;47.332;9.404;2022-12-18T14:46:20;6.15;;;4.60;;
65375;SDS011;51976;47.332;9.404;2022-12-18T14:48:54;6.13;;;4.75;;
65375;SDS011;51976;47.332;9.404;2022-12-18T14:51:21;5.25;;;4.20;;
65375;SDS011;51976;47.332;9.404;2022-12-18T14:53:56;5.95;;;4.72;;
65375;SDS011;51976;47.332;9.404;2022-12-18T14:56:33;5.70;;;4.68;;
65375;SDS011;51976;47.332;9.404;2022-12-18T14:59:01;6.25;;;4.88;;
65375;SDS011;51976;47.332;9.404;2022-12-18T15:01:37;5.47;;;4.30;;
65375;SDS011;51976;47.332;9.404;2022-12-18T15:04:26;5.10;;;4.22;;
65375;SDS011;51976;47.332;9.404;2022-12-18T15:07:15;6.65;;;4.63;;
65375;SDS011;51976;47.332;9.404;2022-12-18T15:10:01;6.43;;;4.30;;
65375;SDS011;51976;47.332;9.404;2022-12-18T15:12:43;5.28;;;4.50;;
65375;SDS011;51976;47.332;9.404;2022-12-18T15:18:11;5.97;;;4.50;;
65375;SDS011;51976;47.332;9.404;2022-12-18T15:20:41;5.40;;;4.22;;
65375;SDS011;51976;47.332;9.404;2022-12-18T15:23:26;5.80;;;5.07;;
65375;SDS011;51976;47.332;9.404;2022-12-18T15:25:59;4.65;;;4.10;;
65375;SDS011;51976;47.332;9.404;2022-12-18T15:28:52;5.63;;;4.40;;
65375;SDS011;51976;47.332;9.404;2022-12-18T15:31:21;5.00;;;4.20;;
65375;SDS011;51976;47.332;9.404;2022-12-18T15:34:01;6.13;;;4.72;;
65375;SDS011;51976;47.332;9.404;2022-12-18T15:36:35;5.72;;;4.43;;
65375;SDS011;51976;47.332;9.404;2022-12-18T15:39:01;5.50;;;4.60;;
65375;SDS011;51976;47.332;9.404;2022-12-18T15:41:27;5.70;;;4.30;;